createdAt,value
2022-11-24T04:01:34.179Z,3.77
2022-11-24T04:04:01.417Z,4.37
2022-11-24T04:06:28.713Z,4.10
2022-11-24T04:08:55.875Z,4.07
2022-11-24T04:11:41.716Z,4.50
2022-11-24T04:14:13.336Z,3.87
2022-11-24T04:16:41.616Z,4.57
2022-11-24T04:19:08.769Z,4.17
2022-11-24T04:21:36.086Z,4.57
2022-11-24T04:24:03.215Z,4.90
2022-11-24T04:26:30.390Z,4.50
2022-11-24T04:28:57.507Z,4.23
2022-11-24T04:31:24.699Z,4.37
2022-11-24T04:33:51.876Z,4.23
2022-11-24T04:36:19.008Z,4.27
2022-11-24T04:39:24.246Z,4.37
2022-11-24T04:41:33.269Z,4.60
2022-11-24T04:44:00.410Z,4.30
2022-11-24T04:46:27.640Z,4.20
2022-11-24T04:48:54.860Z,4.40
2022-11-24T04:51:22.058Z,4.37
2022-11-24T04:53:49.561Z,4.90
2022-11-24T04:56:16.791Z,3.97
2022-11-24T04:58:43.951Z,4.17
2022-11-24T05:01:11.100Z,4.03
2022-11-24T05:03:38.310Z,4.60
2022-11-24T05:06:06.306Z,4.67
2022-11-24T05:08:33.696Z,4.03
2022-11-24T05:11:05.361Z,4.70
2022-11-24T05:13:32.913Z,4.53
2022-11-24T05:16:01.653Z,5.07
2022-11-24T05:18:28.986Z,4.50
2022-11-24T05:20:57.381Z,4.60
2022-11-24T05:23:24.913Z,4.87
2022-11-24T05:25:52.415Z,4.53
2022-11-24T05:28:19.781Z,4.60
2022-11-24T05:30:46.929Z,4.30
2022-11-24T05:33:18.983Z,4.57
2022-11-24T05:35:47.403Z,4.60
2022-11-24T05:38:15.509Z,4.00
2022-11-24T05:40:43.196Z,4.17
2022-11-24T05:43:11.911Z,4.70
2022-11-24T05:45:39.371Z,4.90
2022-11-24T05:48:08.500Z,5.33
2022-11-24T05:50:36.676Z,5.83
2022-11-24T05:53:09.022Z,5.30
2022-11-24T05:55:36.632Z,6.43
2022-11-24T05:58:07.267Z,6.40
2022-11-24T06:00:35.671Z,4.77
2022-11-24T06:03:03.576Z,5.73
2022-11-24T06:05:31.195Z,5.30
2022-11-24T06:08:00.616Z,5.57
2022-11-24T06:10:28.736Z,5.77
2022-11-24T06:12:55.928Z,4.50
2022-11-24T06:15:23.676Z,5.03
2022-11-24T06:17:55.685Z,4.60
2022-11-24T06:20:26.069Z,4.63
2022-11-24T06:23:00.057Z,4.43
2022-11-24T06:25:28.674Z,4.73
2022-11-24T06:27:56.093Z,6.40
2022-11-24T06:30:23.397Z,6.23
2022-11-24T06:32:55.201Z,5.67
2022-11-24T06:35:22.358Z,5.67
2022-11-24T06:37:49.500Z,7.07
2022-11-24T06:40:16.928Z,4.93
2022-11-24T06:42:50.464Z,5.73
2022-11-24T06:45:17.626Z,5.37
2022-11-24T06:47:44.807Z,5.47
2022-11-24T06:50:12.021Z,4.93
2022-11-24T06:52:39.188Z,7.00
2022-11-24T06:55:07.004Z,6.33
2022-11-24T06:57:35.202Z,6.40
2022-11-24T07:00:04.748Z,7.17
2022-11-24T07:02:31.946Z,5.83
2022-11-24T07:04:59.172Z,5.37
2022-11-24T07:07:26.398Z,5.50
2022-11-24T07:09:53.535Z,5.87
2022-11-24T07:12:20.686Z,4.93
2022-11-24T07:14:47.825Z,5.10
2022-11-24T07:17:14.979Z,5.20
2022-11-24T07:19:42.091Z,7.73
2022-11-24T07:22:09.257Z,5.87
2022-11-24T07:24:36.716Z,5.53
2022-11-24T07:27:03.969Z,4.57
2022-11-24T07:29:31.159Z,5.70
2022-11-24T07:32:03.718Z,5.10
2022-11-24T07:34:32.947Z,5.30
2022-11-24T07:37:00.214Z,4.03
2022-11-24T07:39:27.462Z,4.93
2022-11-24T07:41:54.582Z,5.10
2022-11-24T07:44:21.695Z,4.47
2022-11-24T07:46:51.208Z,4.70
2022-11-24T07:49:19.430Z,5.90
2022-11-24T07:51:46.844Z,7.20
2022-11-24T07:54:14.075Z,25.83
2022-11-24T07:56:41.468Z,5.40
2022-11-24T07:59:08.618Z,4.23
2022-11-24T08:01:35.874Z,4.30
2022-11-24T08:04:03.145Z,3.30
2022-11-24T08:06:38.447Z,4.20
2022-11-24T08:09:09.124Z,4.93
2022-11-24T08:11:36.722Z,3.73
2022-11-24T08:14:03.941Z,4.40
2022-11-24T08:16:32.093Z,4.60
2022-11-24T08:18:59.341Z,4.47
2022-11-24T08:21:26.612Z,4.37
2022-11-24T08:23:57.560Z,4.17
2022-11-24T08:26:25.538Z,4.03
2022-11-24T08:28:56.002Z,4.23
2022-11-24T08:31:24.855Z,6.30
2022-11-24T08:33:52.100Z,4.70
2022-11-24T08:36:19.751Z,4.20
2022-11-24T08:38:48.916Z,3.73
2022-11-24T08:41:17.299Z,4.50
2022-11-24T08:43:44.802Z,4.83
2022-11-24T08:46:14.241Z,4.70
2022-11-24T08:48:41.670Z,4.27
2022-11-24T08:51:11.697Z,6.13
2022-11-24T08:53:39.213Z,6.17
2022-11-24T08:56:06.877Z,5.60
2022-11-24T08:58:34.478Z,4.97
2022-11-24T09:01:10.525Z,5.43
2022-11-24T09:03:42.203Z,4.47
2022-11-24T09:06:12.306Z,4.63
2022-11-24T09:08:39.874Z,5.13
2022-11-24T09:11:09.394Z,5.57
2022-11-24T09:13:37.914Z,5.93
2022-11-24T09:16:13.733Z,4.60
2022-11-24T09:18:41.289Z,4.33
2022-11-24T09:21:18.720Z,3.73
2022-11-24T09:23:51.021Z,4.27
2022-11-24T09:26:29.270Z,4.10
2022-11-24T09:28:57.589Z,4.17
2022-11-24T09:31:31.137Z,3.90
2022-11-24T09:33:59.414Z,4.37
2022-11-24T09:36:27.454Z,4.50
2022-11-24T09:38:55.303Z,4.17
2022-11-24T09:41:47.159Z,4.20
2022-11-24T09:44:35.093Z,4.57
2022-11-24T09:47:27.970Z,4.57
2022-11-24T09:50:02.068Z,5.30
2022-11-24T09:53:15.917Z,4.70
2022-11-24T09:55:56.135Z,4.73
2022-11-24T09:58:54.803Z,4.80
2022-11-24T10:01:36.829Z,4.70
2022-11-24T10:04:12.904Z,4.50
2022-11-24T10:07:07.159Z,4.10
2022-11-24T10:09:43.356Z,7.93
2022-11-24T10:12:27.613Z,5.07
2022-11-24T10:15:00.842Z,4.40
2022-11-24T10:17:40.073Z,4.13
2022-11-24T10:20:36.583Z,4.28
2022-11-24T10:23:47.214Z,4.10
2022-11-24T10:26:36.054Z,3.73
2022-11-24T10:29:16.328Z,3.77
2022-11-24T10:31:45.749Z,3.87
2022-11-24T10:34:21.179Z,4.30
2022-11-24T10:37:15.290Z,3.87
2022-11-24T10:40:00.046Z,4.97
2022-11-24T10:42:28.956Z,3.88
2022-11-24T10:45:16.567Z,3.67
2022-11-24T10:47:44.791Z,4.77
2022-11-24T10:50:36.560Z,4.23
2022-11-24T10:53:03.846Z,4.53
2022-11-24T10:55:56.021Z,3.77
2022-11-24T10:58:23.150Z,3.60
2022-11-24T11:00:50.365Z,3.03
2022-11-24T11:03:21.417Z,3.53
2022-11-24T11:05:52.497Z,3.47
2022-11-24T11:08:22.760Z,3.70
2022-11-24T11:11:11.701Z,3.23
2022-11-24T11:13:50.980Z,3.80
2022-11-24T11:16:29.914Z,3.47
2022-11-24T11:18:57.189Z,4.40
2022-11-24T11:21:38.917Z,3.90
2022-11-24T11:24:15.020Z,3.90
2022-11-24T11:26:42.750Z,3.20
2022-11-24T11:35:03.605Z,3.00
2022-11-24T11:37:33.754Z,3.60
2022-11-24T11:40:01.508Z,3.17
2022-11-24T11:45:26.643Z,4.13
2022-11-24T11:48:01.894Z,3.57
2022-11-24T11:51:14.985Z,3.67
2022-11-24T11:53:48.635Z,3.27
2022-11-24T11:56:24.358Z,3.50
2022-11-24T11:59:16.141Z,3.80
2022-11-24T12:02:02.116Z,3.50
2022-11-24T12:04:42.507Z,2.90
2022-11-24T12:07:15.590Z,3.77
2022-11-24T12:10:01.963Z,3.70
2022-11-24T12:12:53.393Z,3.73
2022-11-24T12:15:31.147Z,3.20
2022-11-24T12:18:56.359Z,3.97
2022-11-24T12:21:33.665Z,3.57
2022-11-24T12:24:22.157Z,3.40
2022-11-24T12:27:01.082Z,3.50
2022-11-24T12:29:58.607Z,4.40
2022-11-24T12:32:44.913Z,3.50
2022-11-24T12:35:30.659Z,3.20
2022-11-24T12:38:24.935Z,3.93
2022-11-24T12:41:42.069Z,3.77
2022-11-24T12:44:36.399Z,3.47
2022-11-24T12:47:12.259Z,3.87
2022-11-24T12:49:44.808Z,4.87
2022-11-24T12:52:24.746Z,3.80
2022-11-24T12:54:52.493Z,4.03
2022-11-24T12:57:37.203Z,3.43
2022-11-24T13:00:07.237Z,4.10
2022-11-24T13:02:53.480Z,4.40
2022-11-24T13:05:28.372Z,4.10
2022-11-24T13:08:01.564Z,3.47
2022-11-24T13:13:23.881Z,4.05
2022-11-24T13:18:59.365Z,3.67
2022-11-24T13:21:42.713Z,3.50
2022-11-24T13:24:19.968Z,3.30
2022-11-24T13:27:15.385Z,3.10
2022-11-24T13:29:47.396Z,4.70
2022-11-24T13:32:14.557Z,3.77
2022-11-24T13:34:49.756Z,3.30
2022-11-24T13:37:33.911Z,3.30
2022-11-24T13:40:03.551Z,3.57
2022-11-24T13:42:42.156Z,3.43
2022-11-24T13:45:40.928Z,4.07
2022-11-24T13:48:20.993Z,3.80
2022-11-24T13:50:52.140Z,3.90
2022-11-24T13:53:22.531Z,3.77
2022-11-24T13:55:59.779Z,3.60
2022-11-24T13:58:39.875Z,4.03
2022-11-24T14:01:12.915Z,3.40
2022-11-24T14:04:34.011Z,3.90
2022-11-24T14:07:08.268Z,3.60
2022-11-24T14:09:41.060Z,5.33
2022-11-24T14:12:20.338Z,3.40
2022-11-24T14:14:49.601Z,3.47
2022-11-24T14:17:16.816Z,3.37
2022-11-24T14:19:46.691Z,4.70
2022-11-24T14:22:18.969Z,3.90
2022-11-24T14:24:52.771Z,4.20
2022-11-24T14:27:30.382Z,4.17
2022-11-24T14:30:02.171Z,3.60
2022-11-24T14:32:29.693Z,4.00
2022-11-24T14:34:57.236Z,3.90
2022-11-24T14:37:24.530Z,3.60
2022-11-24T14:39:52.099Z,4.33
2022-11-24T14:42:24.994Z,3.77
2022-11-24T14:44:59.305Z,3.63
2022-11-24T14:47:31.680Z,3.73
2022-11-24T14:50:15.148Z,3.80
2022-11-24T14:53:02.615Z,3.30
2022-11-24T14:55:31.993Z,3.70
2022-11-24T14:57:59.939Z,4.07
2022-11-24T15:00:31.513Z,4.30
2022-11-24T15:03:01.513Z,4.10
2022-11-24T15:05:52.234Z,3.47
2022-11-24T15:08:19.723Z,4.30
2022-11-24T15:10:47.310Z,4.33
2022-11-24T15:13:21.559Z,5.70
2022-11-24T15:16:02.004Z,7.20
2022-11-24T15:18:47.952Z,15.40
2022-11-24T15:21:19.296Z,5.80
2022-11-24T15:24:14.005Z,5.00
2022-11-24T15:26:42.340Z,5.33
2022-11-24T15:29:11.057Z,4.37
2022-11-24T15:31:39.460Z,4.17
2022-11-24T15:34:07.061Z,4.33
2022-11-24T15:36:34.238Z,4.00
2022-11-24T15:39:01.385Z,5.80
2022-11-24T15:41:31.053Z,4.70
2022-11-24T15:43:59.380Z,4.20
2022-11-24T15:46:28.304Z,4.13
2022-11-24T15:48:55.820Z,4.57
2022-11-24T15:51:26.215Z,4.00
2022-11-24T15:54:00.361Z,4.43
2022-11-24T15:56:35.651Z,5.10
2022-11-24T15:59:03.650Z,4.87
2022-11-24T16:01:33.257Z,5.30
2022-11-24T16:04:01.624Z,5.10
2022-11-24T16:06:28.851Z,4.43
2022-11-24T16:08:57.649Z,4.87
2022-11-24T16:11:25.147Z,4.60
2022-11-24T16:13:54.040Z,4.00
2022-11-24T16:16:23.566Z,4.30
2022-11-24T16:18:50.853Z,4.47
2022-11-24T16:21:18.099Z,3.87
2022-11-24T16:23:45.715Z,4.70
2022-11-24T16:26:15.222Z,4.23
2022-11-24T16:28:42.860Z,4.67
2022-11-24T16:31:10.106Z,5.27
2022-11-24T16:33:40.635Z,4.33
2022-11-24T16:36:08.560Z,4.77
2022-11-24T16:38:35.791Z,4.77
2022-11-24T16:41:03.018Z,4.47
2022-11-24T16:43:30.487Z,4.60
2022-11-24T16:46:22.252Z,4.23
2022-11-24T16:48:52.702Z,4.07
2022-11-24T16:51:21.884Z,3.70
2022-11-24T16:53:56.115Z,4.60
2022-11-24T16:56:23.289Z,4.67
2022-11-24T16:58:50.479Z,5.13
2022-11-24T17:01:17.849Z,5.07
2022-11-24T17:03:45.163Z,6.23
2022-11-24T17:06:15.882Z,5.70
2022-11-24T17:08:44.483Z,6.00
2022-11-24T17:11:13.165Z,5.97
2022-11-24T17:13:40.899Z,6.27
2022-11-24T17:16:13.389Z,6.47
2022-11-24T17:18:41.195Z,6.37
2022-11-24T17:21:15.746Z,5.80
2022-11-24T17:23:43.169Z,4.70
2022-11-24T17:26:15.649Z,5.23
2022-11-24T17:28:43.748Z,5.30
2022-11-24T17:31:35.890Z,5.83
2022-11-24T17:34:05.114Z,6.20
2022-11-24T17:36:33.951Z,5.23
2022-11-24T17:39:04.381Z,6.60
2022-11-24T17:41:32.478Z,6.93
2022-11-24T17:43:59.838Z,7.80
2022-11-24T17:46:29.146Z,8.77
2022-11-24T17:48:56.981Z,10.33
2022-11-24T17:51:25.932Z,12.67
2022-11-24T17:53:54.527Z,13.47
2022-11-24T17:56:23.892Z,14.37
2022-11-24T17:58:55.637Z,16.97
2022-11-24T18:01:24.327Z,14.10
2022-11-24T18:03:53.744Z,16.77
2022-11-24T18:06:24.987Z,18.17
2022-11-24T18:08:53.176Z,17.13
2022-11-24T18:11:30.231Z,19.87
2022-11-24T18:14:01.688Z,23.23
2022-11-24T18:16:31.680Z,24.47
2022-11-24T18:19:10.157Z,24.07
2022-11-24T18:21:39.896Z,25.53
2022-11-24T18:24:08.525Z,26.07
2022-11-24T18:26:35.967Z,26.10
2022-11-24T18:29:03.429Z,25.30
2022-11-24T18:31:32.207Z,22.37
2022-11-24T18:33:59.733Z,22.23
2022-11-24T18:36:30.536Z,20.33
2022-11-24T18:39:01.347Z,22.53
2022-11-24T18:41:28.630Z,20.60
2022-11-24T18:43:55.779Z,22.83
2022-11-24T18:46:23.046Z,24.73
2022-11-24T18:48:51.998Z,25.63
2022-11-24T18:51:19.186Z,15.63
2022-11-24T18:53:50.709Z,16.83
2022-11-24T18:56:17.990Z,17.03
2022-11-24T18:58:45.443Z,13.10
2022-11-24T19:01:15.581Z,12.30
2022-11-24T19:03:49.351Z,11.83
2022-11-24T19:06:37.443Z,11.77
2022-11-24T19:09:11.752Z,11.93
2022-11-24T19:11:41.404Z,12.00
2022-11-24T19:14:11.854Z,11.73
2022-11-24T19:16:39.472Z,11.77
2022-11-24T19:19:07.234Z,11.67
2022-11-24T19:21:39.206Z,12.10
2022-11-24T19:24:09.984Z,11.67
2022-11-24T19:26:38.585Z,12.83
2022-11-24T19:29:07.293Z,12.50
2022-11-24T19:31:38.302Z,12.40
2022-11-24T19:34:07.824Z,12.63
2022-11-24T19:36:35.429Z,11.97
2022-11-24T19:39:04.728Z,14.13
2022-11-24T19:41:32.928Z,14.33
2022-11-24T19:44:00.393Z,15.50
2022-11-24T19:46:29.503Z,14.83
2022-11-24T19:48:59.663Z,18.90
2022-11-24T19:51:32.549Z,16.80
2022-11-24T19:54:00.226Z,16.07
2022-11-24T19:56:29.696Z,16.17
2022-11-24T19:58:57.557Z,14.37
2022-11-24T20:01:26.134Z,13.77
2022-11-24T20:03:59.318Z,12.00
2022-11-24T20:06:28.799Z,12.77
2022-11-24T20:08:58.582Z,12.73
2022-11-24T20:11:26.272Z,12.43
2022-11-24T20:13:53.662Z,13.40
2022-11-24T20:16:26.492Z,14.37
2022-11-24T20:19:07.686Z,13.00
2022-11-24T20:21:36.306Z,12.23
2022-11-24T20:24:05.708Z,11.27
2022-11-24T20:26:36.002Z,13.97
2022-11-24T20:29:04.295Z,13.27
2022-11-24T20:31:37.470Z,12.80
2022-11-24T20:34:06.589Z,12.57
2022-11-24T20:36:36.382Z,12.80
2022-11-24T20:39:06.949Z,13.37
2022-11-24T20:41:35.745Z,12.77
2022-11-24T20:44:07.070Z,11.17
2022-11-24T20:46:36.442Z,11.33
2022-11-24T20:49:04.575Z,11.83
2022-11-24T20:51:34.025Z,12.10
2022-11-24T20:54:05.275Z,11.90
2022-11-24T20:56:36.660Z,10.60
2022-11-24T20:59:04.676Z,12.20
2022-11-24T21:01:38.327Z,11.80
2022-11-24T21:04:11.359Z,11.80
2022-11-24T21:06:39.224Z,11.33
2022-11-24T21:09:08.379Z,11.50
2022-11-24T21:11:36.716Z,10.63
2022-11-24T21:14:04.595Z,11.43
2022-11-24T21:16:34.283Z,11.50
2022-11-24T21:19:07.196Z,11.60
2022-11-24T21:21:36.591Z,11.43
2022-11-24T21:24:22.174Z,10.60
2022-11-24T21:26:51.651Z,11.33
2022-11-24T21:29:21.856Z,11.90
2022-11-24T21:31:49.190Z,11.03
2022-11-24T21:34:18.925Z,11.30
2022-11-24T21:36:46.429Z,11.50
2022-11-24T21:39:14.573Z,12.30
2022-11-24T21:41:42.631Z,11.00
2022-11-24T21:44:12.266Z,12.73
2022-11-24T21:46:45.007Z,11.40
2022-11-24T21:49:16.749Z,11.63
2022-11-24T21:51:43.968Z,12.07
2022-11-24T21:54:11.156Z,11.23
2022-11-24T21:56:38.293Z,12.10
2022-11-24T21:59:05.499Z,13.40
